sensor_id;sensor_type;location;lat;lon;timestamp;temperature;humidity
5639;DHT22;2841;44.526;11.360;2023-04-06T00:02:02;4.90;42.20
5639;DHT22;2841;44.526;11.360;2023-04-06T00:04:29;4.90;42.10
5639;DHT22;2841;44.526;11.360;2023-04-06T00:06:56;4.80;42.20
5639;DHT22;2841;44.526;11.360;2023-04-06T00:09:22;4.70;42.20
5639;DHT22;2841;44.526;11.360;2023-04-06T00:11:51;4.70;42.40
5639;DHT22;2841;44.526;11.360;2023-04-06T00:14:17;4.70;42.50
5639;DHT22;2841;44.526;11.360;2023-04-06T00:16:44;4.80;42.60
5639;DHT22;2841;44.526;11.360;2023-04-06T00:19:11;4.90;42.60
5639;DHT22;2841;44.526;11.360;2023-04-06T00:21:38;5.00;42.60
5639;DHT22;2841;44.526;11.360;2023-04-06T00:24:05;5.10;42.50
5639;DHT22;2841;44.526;11.360;2023-04-06T00:26:32;5.20;42.40
5639;DHT22;2841;44.526;11.360;2023-04-06T00:29:00;5.30;42.30
5639;DHT22;2841;44.526;11.360;2023-04-06T00:31:27;5.30;42.20
5639;DHT22;2841;44.526;11.360;2023-04-06T00:33:53;5.30;42.20
5639;DHT22;2841;44.526;11.360;2023-04-06T00:36:20;5.30;42.90
5639;DHT22;2841;44.526;11.360;2023-04-06T00:38:47;5.20;42.30
5639;DHT22;2841;44.526;11.360;2023-04-06T00:41:14;5.10;42.40
5639;DHT22;2841;44.526;11.360;2023-04-06T00:43:41;5.10;42.60
5639;DHT22;2841;44.526;11.360;2023-04-06T00:46:09;5.10;42.70
5639;DHT22;2841;44.526;11.360;2023-04-06T00:48:36;5.10;42.70
5639;DHT22;2841;44.526;11.360;2023-04-06T00:51:03;5.10;42.70
5639;DHT22;2841;44.526;11.360;2023-04-06T00:53:30;5.20;42.80
5639;DHT22;2841;44.526;11.360;2023-04-06T00:55:57;5.20;42.80
5639;DHT22;2841;44.526;11.360;2023-04-06T00:58:24;5.20;42.70
5639;DHT22;2841;44.526;11.360;2023-04-06T01:00:51;5.20;42.70
5639;DHT22;2841;44.526;11.360;2023-04-06T01:03:19;5.20;42.70
5639;DHT22;2841;44.526;11.360;2023-04-06T01:05:46;5.20;42.70
5639;DHT22;2841;44.526;11.360;2023-04-06T01:08:13;5.20;42.70
5639;DHT22;2841;44.526;11.360;2023-04-06T01:10:40;5.10;42.70
5639;DHT22;2841;44.526;11.360;2023-04-06T01:13:07;5.10;42.80
5639;DHT22;2841;44.526;11.360;2023-04-06T01:15:34;5.10;42.90
5639;DHT22;2841;44.526;11.360;2023-04-06T01:18:03;5.10;42.90
5639;DHT22;2841;44.526;11.360;2023-04-06T01:20:33;5.10;42.90
5639;DHT22;2841;44.526;11.360;2023-04-06T01:23:01;5.20;42.90
5639;DHT22;2841;44.526;11.360;2023-04-06T01:25:28;5.20;42.80
5639;DHT22;2841;44.526;11.360;2023-04-06T01:27:55;5.20;42.90
5639;DHT22;2841;44.526;11.360;2023-04-06T01:30:22;5.20;42.90
5639;DHT22;2841;44.526;11.360;2023-04-06T01:32:48;5.10;42.80
5639;DHT22;2841;44.526;11.360;2023-04-06T01:35:15;5.10;42.90
5639;DHT22;2841;44.526;11.360;2023-04-06T01:37:42;5.10;43.00
5639;DHT22;2841;44.526;11.360;2023-04-06T01:40:10;5.10;43.10
5639;DHT22;2841;44.526;11.360;2023-04-06T01:42:39;5.10;43.10
5639;DHT22;2841;44.526;11.360;2023-04-06T01:45:06;5.10;43.00
5639;DHT22;2841;44.526;11.360;2023-04-06T01:47:33;5.10;43.00
5639;DHT22;2841;44.526;11.360;2023-04-06T01:49:59;5.00;43.00
5639;DHT22;2841;44.526;11.360;2023-04-06T01:52:27;5.00;43.00
5639;DHT22;2841;44.526;11.360;2023-04-06T01:54:54;5.00;43.00
5639;DHT22;2841;44.526;11.360;2023-04-06T01:57:22;5.00;43.00
5639;DHT22;2841;44.526;11.360;2023-04-06T01:59:49;5.00;43.00
5639;DHT22;2841;44.526;11.360;2023-04-06T02:02:16;4.90;42.90
5639;DHT22;2841;44.526;11.360;2023-04-06T02:04:43;5.00;43.00
5639;DHT22;2841;44.526;11.360;2023-04-06T02:07:09;4.90;42.90
5639;DHT22;2841;44.526;11.360;2023-04-06T02:09:36;4.90;43.00
5639;DHT22;2841;44.526;11.360;2023-04-06T02:12:03;4.90;42.90
5639;DHT22;2841;44.526;11.360;2023-04-06T02:14:32;4.90;43.00
5639;DHT22;2841;44.526;11.360;2023-04-06T02:16:59;4.80;43.00
5639;DHT22;2841;44.526;11.360;2023-04-06T02:19:26;4.60;43.00
5639;DHT22;2841;44.526;11.360;2023-04-06T02:21:53;4.50;43.20
5639;DHT22;2841;44.526;11.360;2023-04-06T02:24:20;4.30;43.30
5639;DHT22;2841;44.526;11.360;2023-04-06T02:26:46;4.20;43.40
5639;DHT22;2841;44.526;11.360;2023-04-06T02:29:13;4.00;43.60
5639;DHT22;2841;44.526;11.360;2023-04-06T02:31:41;3.90;43.80
5639;DHT22;2841;44.526;11.360;2023-04-06T02:34:08;3.80;43.90
5639;DHT22;2841;44.526;11.360;2023-04-06T02:36:37;3.70;44.00
5639;DHT22;2841;44.526;11.360;2023-04-06T02:39:04;3.70;44.10
5639;DHT22;2841;44.526;11.360;2023-04-06T02:41:30;3.60;44.20
5639;DHT22;2841;44.526;11.360;2023-04-06T02:43:57;3.60;44.30
5639;DHT22;2841;44.526;11.360;2023-04-06T02:46:24;3.50;44.30
5639;DHT22;2841;44.526;11.360;2023-04-06T02:48:52;3.40;44.30
5639;DHT22;2841;44.526;11.360;2023-04-06T02:51:19;3.30;44.50
5639;DHT22;2841;44.526;11.360;2023-04-06T02:53:46;3.20;44.50
5639;DHT22;2841;44.526;11.360;2023-04-06T02:56:12;3.20;44.70
5639;DHT22;2841;44.526;11.360;2023-04-06T02:58:39;3.20;44.70
5639;DHT22;2841;44.526;11.360;2023-04-06T03:01:06;3.20;44.80
5639;DHT22;2841;44.526;11.360;2023-04-06T03:03:33;3.20;44.80
5639;DHT22;2841;44.526;11.360;2023-04-06T03:06:01;3.30;44.90
5639;DHT22;2841;44.526;11.360;2023-04-06T03:08:28;3.30;44.90
5639;DHT22;2841;44.526;11.360;2023-04-06T03:10:55;3.20;44.80
5639;DHT22;2841;44.526;11.360;2023-04-06T03:13:22;3.10;44.90
5639;DHT22;2841;44.526;11.360;2023-04-06T03:15:48;3.10;45.00
5639;DHT22;2841;44.526;11.360;2023-04-06T03:18:15;3.00;45.10
5639;DHT22;2841;44.526;11.360;2023-04-06T03:20:42;2.90;45.20
5639;DHT22;2841;44.526;11.360;2023-04-06T03:23:10;2.90;45.30
5639;DHT22;2841;44.526;11.360;2023-04-06T03:25:37;2.80;45.40
5639;DHT22;2841;44.526;11.360;2023-04-06T03:28:05;2.80;45.50
5639;DHT22;2841;44.526;11.360;2023-04-06T03:30:31;2.70;45.50
5639;DHT22;2841;44.526;11.360;2023-04-06T03:32:58;2.60;45.60
5639;DHT22;2841;44.526;11.360;2023-04-06T03:35:25;2.60;45.70
5639;DHT22;2841;44.526;11.360;2023-04-06T03:37:52;2.50;45.80
5639;DHT22;2841;44.526;11.360;2023-04-06T03:40:20;2.50;45.80
5639;DHT22;2841;44.526;11.360;2023-04-06T03:42:47;2.50;45.80
5639;DHT22;2841;44.526;11.360;2023-04-06T03:45:13;2.50;45.90
5639;DHT22;2841;44.526;11.360;2023-04-06T03:47:40;2.50;46.00
5639;DHT22;2841;44.526;11.360;2023-04-06T03:50:07;2.50;46.10
5639;DHT22;2841;44.526;11.360;2023-04-06T03:52:34;2.50;46.10
5639;DHT22;2841;44.526;11.360;2023-04-06T03:55:01;2.50;46.10
5639;DHT22;2841;44.526;11.360;2023-04-06T03:57:29;2.50;46.20
5639;DHT22;2841;44.526;11.360;2023-04-06T03:59:56;2.50;46.30
5639;DHT22;2841;44.526;11.360;2023-04-06T04:02:23;2.40;46.30
5639;DHT22;2841;44.526;11.360;2023-04-06T04:04:49;2.40;46.40
5639;DHT22;2841;44.526;11.360;2023-04-06T04:07:16;2.50;46.60
5639;DHT22;2841;44.526;11.360;2023-04-06T04:09:43;2.50;46.60
5639;DHT22;2841;44.526;11.360;2023-04-06T04:12:10;2.50;46.70
5639;DHT22;2841;44.526;11.360;2023-04-06T04:14:38;2.50;46.80
5639;DHT22;2841;44.526;11.360;2023-04-06T04:17:05;2.50;46.80
5639;DHT22;2841;44.526;11.360;2023-04-06T04:19:32;2.40;46.80
5639;DHT22;2841;44.526;11.360;2023-04-06T04:21:58;2.40;46.90
5639;DHT22;2841;44.526;11.360;2023-04-06T04:24:25;2.40;47.30
5639;DHT22;2841;44.526;11.360;2023-04-06T04:26:52;2.50;47.20
5639;DHT22;2841;44.526;11.360;2023-04-06T04:29:18;2.50;47.10
5639;DHT22;2841;44.526;11.360;2023-04-06T04:31:49;2.60;47.20
5639;DHT22;2841;44.526;11.360;2023-04-06T04:34:16;2.60;47.20
5639;DHT22;2841;44.526;11.360;2023-04-06T04:36:44;2.60;47.20
5639;DHT22;2841;44.526;11.360;2023-04-06T04:39:11;2.70;47.30
5639;DHT22;2841;44.526;11.360;2023-04-06T04:41:38;2.70;47.30
5639;DHT22;2841;44.526;11.360;2023-04-06T04:44:04;2.70;47.40
5639;DHT22;2841;44.526;11.360;2023-04-06T04:46:31;2.70;47.40
5639;DHT22;2841;44.526;11.360;2023-04-06T04:48:59;2.60;47.40
5639;DHT22;2841;44.526;11.360;2023-04-06T04:51:26;2.60;47.50
5639;DHT22;2841;44.526;11.360;2023-04-06T04:53:53;2.60;47.50
5639;DHT22;2841;44.526;11.360;2023-04-06T04:56:19;2.60;47.60
5639;DHT22;2841;44.526;11.360;2023-04-06T04:58:46;2.60;47.70
5639;DHT22;2841;44.526;11.360;2023-04-06T05:01:13;2.60;47.70
5639;DHT22;2841;44.526;11.360;2023-04-06T05:03:40;2.60;47.80
5639;DHT22;2841;44.526;11.360;2023-04-06T05:06:08;2.60;47.90
5639;DHT22;2841;44.526;11.360;2023-04-06T05:08:35;2.50;47.80
5639;DHT22;2841;44.526;11.360;2023-04-06T05:11:02;2.60;47.90
5639;DHT22;2841;44.526;11.360;2023-04-06T05:13:29;2.60;48.00
5639;DHT22;2841;44.526;11.360;2023-04-06T05:15:57;2.60;48.00
5639;DHT22;2841;44.526;11.360;2023-04-06T05:18:25;2.60;48.00
5639;DHT22;2841;44.526;11.360;2023-04-06T05:20:52;2.70;48.10
5639;DHT22;2841;44.526;11.360;2023-04-06T05:23:20;2.70;48.10
5639;DHT22;2841;44.526;11.360;2023-04-06T05:25:47;2.90;48.20
5639;DHT22;2841;44.526;11.360;2023-04-06T05:28:15;2.90;48.10
5639;DHT22;2841;44.526;11.360;2023-04-06T05:30:41;3.00;48.10
5639;DHT22;2841;44.526;11.360;2023-04-06T05:33:08;3.10;48.10
5639;DHT22;2841;44.526;11.360;2023-04-06T05:35:35;3.10;48.00
5639;DHT22;2841;44.526;11.360;2023-04-06T05:38:02;3.20;48.10
5639;DHT22;2841;44.526;11.360;2023-04-06T05:40:30;3.30;48.10
5639;DHT22;2841;44.526;11.360;2023-04-06T05:42:57;3.40;48.10
5639;DHT22;2841;44.526;11.360;2023-04-06T05:45:24;3.50;48.10
5639;DHT22;2841;44.526;11.360;2023-04-06T05:47:50;3.60;48.20
5639;DHT22;2841;44.526;11.360;2023-04-06T05:50:18;3.70;48.20
5639;DHT22;2841;44.526;11.360;2023-04-06T05:52:44;3.70;48.10
5639;DHT22;2841;44.526;11.360;2023-04-06T05:55:11;3.90;48.20
5639;DHT22;2841;44.526;11.360;2023-04-06T05:57:39;4.00;48.20
5639;DHT22;2841;44.526;11.360;2023-04-06T06:00:07;4.10;48.30
5639;DHT22;2841;44.526;11.360;2023-04-06T06:02:35;4.20;48.30
5639;DHT22;2841;44.526;11.360;2023-04-06T06:05:02;4.30;48.20
5639;DHT22;2841;44.526;11.360;2023-04-06T06:07:29;4.40;48.20
5639;DHT22;2841;44.526;11.360;2023-04-06T06:09:56;4.50;48.20
5639;DHT22;2841;44.526;11.360;2023-04-06T06:12:23;4.70;48.30
5639;DHT22;2841;44.526;11.360;2023-04-06T06:14:51;4.80;48.20
5639;DHT22;2841;44.526;11.360;2023-04-06T06:17:18;4.80;48.10
5639;DHT22;2841;44.526;11.360;2023-04-06T06:19:45;4.80;48.10
5639;DHT22;2841;44.526;11.360;2023-04-06T06:22:11;4.90;48.10
5639;DHT22;2841;44.526;11.360;2023-04-06T06:24:38;5.00;48.20
5639;DHT22;2841;44.526;11.360;2023-04-06T06:27:05;5.10;48.10
5639;DHT22;2841;44.526;11.360;2023-04-06T06:29:33;5.20;48.10
5639;DHT22;2841;44.526;11.360;2023-04-06T06:32:01;5.20;48.00
5639;DHT22;2841;44.526;11.360;2023-04-06T06:34:27;5.30;48.00
5639;DHT22;2841;44.526;11.360;2023-04-06T06:36:54;5.30;48.00
5639;DHT22;2841;44.526;11.360;2023-04-06T06:39:21;5.40;48.00
5639;DHT22;2841;44.526;11.360;2023-04-06T06:41:48;5.50;48.00
5639;DHT22;2841;44.526;11.360;2023-04-06T06:44:14;5.60;48.00
5639;DHT22;2841;44.526;11.360;2023-04-06T06:46:41;5.60;47.80
5639;DHT22;2841;44.526;11.360;2023-04-06T06:49:10;5.70;47.80
5639;DHT22;2841;44.526;11.360;2023-04-06T06:51:37;5.80;48.00
5639;DHT22;2841;44.526;11.360;2023-04-06T06:54:04;5.90;47.70
5639;DHT22;2841;44.526;11.360;2023-04-06T06:56:31;6.00;47.70
5639;DHT22;2841;44.526;11.360;2023-04-06T06:58:58;6.10;47.70
5639;DHT22;2841;44.526;11.360;2023-04-06T07:01:25;6.20;47.60
5639;DHT22;2841;44.526;11.360;2023-04-06T07:03:51;6.30;47.60
5639;DHT22;2841;44.526;11.360;2023-04-06T07:06:20;6.40;47.50
5639;DHT22;2841;44.526;11.360;2023-04-06T07:08:46;6.60;47.60
5639;DHT22;2841;44.526;11.360;2023-04-06T07:11:13;6.60;47.40
5639;DHT22;2841;44.526;11.360;2023-04-06T07:13:40;6.70;47.40
5639;DHT22;2841;44.526;11.360;2023-04-06T07:16:07;6.90;47.40
5639;DHT22;2841;44.526;11.360;2023-04-06T07:18:33;7.00;47.30
5639;DHT22;2841;44.526;11.360;2023-04-06T07:21:00;7.10;47.20
5639;DHT22;2841;44.526;11.360;2023-04-06T07:23:29;7.20;47.20
5639;DHT22;2841;44.526;11.360;2023-04-06T07:25:56;7.30;47.20
5639;DHT22;2841;44.526;11.360;2023-04-06T07:28:23;7.40;47.00
5639;DHT22;2841;44.526;11.360;2023-04-06T07:30:49;7.50;47.00
5639;DHT22;2841;44.526;11.360;2023-04-06T07:33:16;7.60;47.00
5639;DHT22;2841;44.526;11.360;2023-04-06T07:35:43;7.70;47.00
5639;DHT22;2841;44.526;11.360;2023-04-06T07:38:10;7.80;46.90
5639;DHT22;2841;44.526;11.360;2023-04-06T07:40:38;7.90;46.80
5639;DHT22;2841;44.526;11.360;2023-04-06T07:43:05;8.00;46.80
5639;DHT22;2841;44.526;11.360;2023-04-06T07:45:32;8.00;46.60
5639;DHT22;2841;44.526;11.360;2023-04-06T07:47:59;8.10;46.40
5639;DHT22;2841;44.526;11.360;2023-04-06T07:50:25;8.10;46.20
5639;DHT22;2841;44.526;11.360;2023-04-06T07:52:52;8.20;46.20
5639;DHT22;2841;44.526;11.360;2023-04-06T07:55:19;8.30;46.10
5639;DHT22;2841;44.526;11.360;2023-04-06T07:57:47;8.30;45.70
5639;DHT22;2841;44.526;11.360;2023-04-06T08:00:14;8.40;45.60
5639;DHT22;2841;44.526;11.360;2023-04-06T08:02:41;8.50;45.60
5639;DHT22;2841;44.526;11.360;2023-04-06T08:05:08;8.70;45.60
5639;DHT22;2841;44.526;11.360;2023-04-06T08:07:35;8.80;45.30
5639;DHT22;2841;44.526;11.360;2023-04-06T08:10:02;8.80;45.10
5639;DHT22;2841;44.526;11.360;2023-04-06T08:12:29;8.90;45.10
5639;DHT22;2841;44.526;11.360;2023-04-06T08:14:57;9.00;45.10
5639;DHT22;2841;44.526;11.360;2023-04-06T08:17:25;9.10;45.00
5639;DHT22;2841;44.526;11.360;2023-04-06T08:19:54;9.20;44.80
5639;DHT22;2841;44.526;11.360;2023-04-06T08:22:21;9.30;44.70
5639;DHT22;2841;44.526;11.360;2023-04-06T08:24:48;9.40;44.70
5639;DHT22;2841;44.526;11.360;2023-04-06T08:27:14;9.50;44.60
5639;DHT22;2841;44.526;11.360;2023-04-06T08:29:41;9.60;44.40
5639;DHT22;2841;44.526;11.360;2023-04-06T08:32:09;9.70;44.30
5639;DHT22;2841;44.526;11.360;2023-04-06T08:34:36;9.80;44.10
5639;DHT22;2841;44.526;11.360;2023-04-06T08:37:03;9.90;44.10
5639;DHT22;2841;44.526;11.360;2023-04-06T08:39:30;10.10;43.20
5639;DHT22;2841;44.526;11.360;2023-04-06T08:41:59;10.20;43.00
5639;DHT22;2841;44.526;11.360;2023-04-06T08:44:28;10.30;42.80
5639;DHT22;2841;44.526;11.360;2023-04-06T08:46:55;10.40;42.70
5639;DHT22;2841;44.526;11.360;2023-04-06T08:49:23;10.60;42.60
5639;DHT22;2841;44.526;11.360;2023-04-06T08:51:50;10.70;42.60
5639;DHT22;2841;44.526;11.360;2023-04-06T08:54:17;10.80;42.40
5639;DHT22;2841;44.526;11.360;2023-04-06T08:56:44;11.10;42.40
5639;DHT22;2841;44.526;11.360;2023-04-06T08:59:11;11.30;42.30
5639;DHT22;2841;44.526;11.360;2023-04-06T09:01:39;11.40;42.10
5639;DHT22;2841;44.526;11.360;2023-04-06T09:04:07;11.50;42.00
5639;DHT22;2841;44.526;11.360;2023-04-06T09:06:37;11.60;41.90
5639;DHT22;2841;44.526;11.360;2023-04-06T09:09:05;11.80;41.80
5639;DHT22;2841;44.526;11.360;2023-04-06T09:11:44;13.10;42.60
5639;DHT22;2841;44.526;11.360;2023-04-06T09:14:11;12.00;41.60
5639;DHT22;2841;44.526;11.360;2023-04-06T09:16:38;12.10;41.40
5639;DHT22;2841;44.526;11.360;2023-04-06T09:19:05;12.10;41.20
5639;DHT22;2841;44.526;11.360;2023-04-06T09:21:32;12.10;40.90
5639;DHT22;2841;44.526;11.360;2023-04-06T09:24:00;12.10;40.60
5639;DHT22;2841;44.526;11.360;2023-04-06T09:26:27;12.00;40.10
5639;DHT22;2841;44.526;11.360;2023-04-06T09:28:54;12.00;40.00
5639;DHT22;2841;44.526;11.360;2023-04-06T09:31:22;12.10;40.00
5639;DHT22;2841;44.526;11.360;2023-04-06T09:33:49;12.20;40.00
5639;DHT22;2841;44.526;11.360;2023-04-06T09:36:15;12.40;40.00
5639;DHT22;2841;44.526;11.360;2023-04-06T09:38:52;12.60;40.00
5639;DHT22;2841;44.526;11.360;2023-04-06T09:41:24;12.70;39.70
5639;DHT22;2841;44.526;11.360;2023-04-06T09:43:52;12.70;39.30
5639;DHT22;2841;44.526;11.360;2023-04-06T09:46:20;12.70;39.10
5639;DHT22;2841;44.526;11.360;2023-04-06T09:48:47;12.80;39.00
5639;DHT22;2841;44.526;11.360;2023-04-06T09:51:16;12.70;38.80
5639;DHT22;2841;44.526;11.360;2023-04-06T09:53:44;12.70;38.40
5639;DHT22;2841;44.526;11.360;2023-04-06T09:56:16;12.70;39.00
5639;DHT22;2841;44.526;11.360;2023-04-06T09:58:45;12.80;38.60
5639;DHT22;2841;44.526;11.360;2023-04-06T10:01:13;13.00;38.70
5639;DHT22;2841;44.526;11.360;2023-04-06T10:03:45;13.10;38.60
5639;DHT22;2841;44.526;11.360;2023-04-06T10:06:13;13.30;38.50
5639;DHT22;2841;44.526;11.360;2023-04-06T10:08:40;13.40;38.40
5639;DHT22;2841;44.526;11.360;2023-04-06T10:11:07;13.50;38.40
5639;DHT22;2841;44.526;11.360;2023-04-06T10:13:35;13.70;38.40
5639;DHT22;2841;44.526;11.360;2023-04-06T10:16:03;13.70;38.10
5639;DHT22;2841;44.526;11.360;2023-04-06T10:18:30;13.70;38.00
5639;DHT22;2841;44.526;11.360;2023-04-06T10:20:57;13.70;38.00
5639;DHT22;2841;44.526;11.360;2023-04-06T10:23:29;13.70;37.60
5639;DHT22;2841;44.526;11.360;2023-04-06T10:25:57;13.70;37.60
5639;DHT22;2841;44.526;11.360;2023-04-06T10:28:25;13.80;37.60
5639;DHT22;2841;44.526;11.360;2023-04-06T10:30:56;14.00;37.60
5639;DHT22;2841;44.526;11.360;2023-04-06T10:33:24;14.10;37.50
5639;DHT22;2841;44.526;11.360;2023-04-06T10:35:51;14.20;37.40
5639;DHT22;2841;44.526;11.360;2023-04-06T10:38:18;14.30;37.20
5639;DHT22;2841;44.526;11.360;2023-04-06T10:40:47;14.30;37.10
5639;DHT22;2841;44.526;11.360;2023-04-06T10:43:18;14.30;36.90
5639;DHT22;2841;44.526;11.360;2023-04-06T10:45:45;14.30;36.60
5639;DHT22;2841;44.526;11.360;2023-04-06T10:48:20;14.30;36.70
5639;DHT22;2841;44.526;11.360;2023-04-06T10:50:50;14.40;36.70
5639;DHT22;2841;44.526;11.360;2023-04-06T10:53:20;14.50;36.60
5639;DHT22;2841;44.526;11.360;2023-04-06T10:55:48;14.50;36.50
5639;DHT22;2841;44.526;11.360;2023-04-06T10:58:15;14.60;36.10
5639;DHT22;2841;44.526;11.360;2023-04-06T11:00:43;14.80;36.50
5639;DHT22;2841;44.526;11.360;2023-04-06T11:03:11;15.00;36.50
5639;DHT22;2841;44.526;11.360;2023-04-06T11:05:37;15.20;36.40
5639;DHT22;2841;44.526;11.360;2023-04-06T11:08:06;15.30;36.20
5639;DHT22;2841;44.526;11.360;2023-04-06T11:10:33;15.30;36.20
5639;DHT22;2841;44.526;11.360;2023-04-06T11:13:00;15.40;36.20
5639;DHT22;2841;44.526;11.360;2023-04-06T11:15:33;15.30;35.90
5639;DHT22;2841;44.526;11.360;2023-04-06T11:18:03;15.30;35.90
5639;DHT22;2841;44.526;11.360;2023-04-06T11:20:30;15.20;35.90
5639;DHT22;2841;44.526;11.360;2023-04-06T11:22:57;15.30;35.80
5639;DHT22;2841;44.526;11.360;2023-04-06T11:25:26;15.30;35.80
5639;DHT22;2841;44.526;11.360;2023-04-06T11:27:53;15.40;35.80
5639;DHT22;2841;44.526;11.360;2023-04-06T11:30:20;15.40;35.80
5639;DHT22;2841;44.526;11.360;2023-04-06T11:32:46;15.50;35.70
5639;DHT22;2841;44.526;11.360;2023-04-06T11:35:19;15.60;35.60
5639;DHT22;2841;44.526;11.360;2023-04-06T11:37:46;15.70;35.60
5639;DHT22;2841;44.526;11.360;2023-04-06T11:40:13;15.80;35.50
5639;DHT22;2841;44.526;11.360;2023-04-06T11:42:41;15.90;35.60
5639;DHT22;2841;44.526;11.360;2023-04-06T11:45:08;16.00;35.50
5639;DHT22;2841;44.526;11.360;2023-04-06T11:47:36;16.10;35.50
5639;DHT22;2841;44.526;11.360;2023-04-06T11:50:06;16.10;35.30
5639;DHT22;2841;44.526;11.360;2023-04-06T11:52:33;15.90;35.00
5639;DHT22;2841;44.526;11.360;2023-04-06T11:55:09;15.90;35.30
5639;DHT22;2841;44.526;11.360;2023-04-06T11:57:36;16.10;35.40
5639;DHT22;2841;44.526;11.360;2023-04-06T12:00:05;16.20;35.10
5639;DHT22;2841;44.526;11.360;2023-04-06T12:02:32;16.20;34.90
5639;DHT22;2841;44.526;11.360;2023-04-06T12:04:59;16.30;34.90
5639;DHT22;2841;44.526;11.360;2023-04-06T12:07:26;16.30;34.70
5639;DHT22;2841;44.526;11.360;2023-04-06T12:09:52;16.40;34.80
5639;DHT22;2841;44.526;11.360;2023-04-06T12:12:19;16.60;35.00
5639;DHT22;2841;44.526;11.360;2023-04-06T12:14:46;16.80;34.90
5639;DHT22;2841;44.526;11.360;2023-04-06T12:17:14;16.80;34.70
5639;DHT22;2841;44.526;11.360;2023-04-06T12:19:41;16.90;34.80
5639;DHT22;2841;44.526;11.360;2023-04-06T12:22:08;17.00;34.70
5639;DHT22;2841;44.526;11.360;2023-04-06T12:24:34;17.10;34.70
5639;DHT22;2841;44.526;11.360;2023-04-06T12:27:01;17.30;34.60
5639;DHT22;2841;44.526;11.360;2023-04-06T12:29:28;17.30;34.40
5639;DHT22;2841;44.526;11.360;2023-04-06T12:31:55;17.30;34.40
5639;DHT22;2841;44.526;11.360;2023-04-06T12:34:23;17.40;34.50
5639;DHT22;2841;44.526;11.360;2023-04-06T12:36:50;17.50;34.50
5639;DHT22;2841;44.526;11.360;2023-04-06T12:39:18;17.70;34.50
5639;DHT22;2841;44.526;11.360;2023-04-06T12:41:46;17.90;34.40
5639;DHT22;2841;44.526;11.360;2023-04-06T12:44:13;18.00;34.40
5639;DHT22;2841;44.526;11.360;2023-04-06T12:46:39;18.00;34.20
5639;DHT22;2841;44.526;11.360;2023-04-06T12:49:08;17.80;34.10
5639;DHT22;2841;44.526;11.360;2023-04-06T12:51:36;17.70;34.10
5639;DHT22;2841;44.526;11.360;2023-04-06T12:54:03;17.70;34.00
5639;DHT22;2841;44.526;11.360;2023-04-06T12:56:31;17.50;33.70
5639;DHT22;2841;44.526;11.360;2023-04-06T12:58:58;17.40;33.70
5639;DHT22;2841;44.526;11.360;2023-04-06T13:01:24;17.40;33.80
5639;DHT22;2841;44.526;11.360;2023-04-06T13:03:53;17.60;33.90
5639;DHT22;2841;44.526;11.360;2023-04-06T13:06:20;17.80;33.90
5639;DHT22;2841;44.526;11.360;2023-04-06T13:08:48;17.80;33.70
5639;DHT22;2841;44.526;11.360;2023-04-06T13:11:16;17.90;34.20
5639;DHT22;2841;44.526;11.360;2023-04-06T13:13:43;17.90;33.50
5639;DHT22;2841;44.526;11.360;2023-04-06T13:16:10;17.90;33.60
5639;DHT22;2841;44.526;11.360;2023-04-06T13:18:37;17.90;33.30
5639;DHT22;2841;44.526;11.360;2023-04-06T13:21:04;17.70;33.30
5639;DHT22;2841;44.526;11.360;2023-04-06T13:23:31;17.80;33.40
5639;DHT22;2841;44.526;11.360;2023-04-06T13:26:00;17.80;33.30
5639;DHT22;2841;44.526;11.360;2023-04-06T13:28:28;18.00;33.30
5639;DHT22;2841;44.526;11.360;2023-04-06T13:30:55;18.10;33.10
5639;DHT22;2841;44.526;11.360;2023-04-06T13:33:22;18.20;33.10
5639;DHT22;2841;44.526;11.360;2023-04-06T13:35:48;18.20;32.90
5639;DHT22;2841;44.526;11.360;2023-04-06T13:38:15;18.20;32.80
5639;DHT22;2841;44.526;11.360;2023-04-06T13:40:42;18.30;32.80
5639;DHT22;2841;44.526;11.360;2023-04-06T13:43:10;18.20;32.60
5639;DHT22;2841;44.526;11.360;2023-04-06T13:45:37;18.10;32.40
5639;DHT22;2841;44.526;11.360;2023-04-06T13:48:04;18.00;32.20
5639;DHT22;2841;44.526;11.360;2023-04-06T13:50:32;18.10;32.40
5639;DHT22;2841;44.526;11.360;2023-04-06T13:52:59;18.20;32.40
5639;DHT22;2841;44.526;11.360;2023-04-06T13:55:25;18.40;32.40
5639;DHT22;2841;44.526;11.360;2023-04-06T13:57:52;18.70;32.40
5639;DHT22;2841;44.526;11.360;2023-04-06T14:00:21;18.70;32.10
5639;DHT22;2841;44.526;11.360;2023-04-06T14:02:49;18.80;32.20
5639;DHT22;2841;44.526;11.360;2023-04-06T14:05:16;18.90;32.20
5639;DHT22;2841;44.526;11.360;2023-04-06T14:07:42;19.00;31.90
5639;DHT22;2841;44.526;11.360;2023-04-06T14:10:09;19.00;31.80
5639;DHT22;2841;44.526;11.360;2023-04-06T14:12:39;19.00;31.60
5639;DHT22;2841;44.526;11.360;2023-04-06T14:15:07;19.10;31.70
5639;DHT22;2841;44.526;11.360;2023-04-06T14:17:35;19.20;31.60
5639;DHT22;2841;44.526;11.360;2023-04-06T14:20:02;19.40;31.50
5639;DHT22;2841;44.526;11.360;2023-04-06T14:22:29;19.50;31.40
5639;DHT22;2841;44.526;11.360;2023-04-06T14:24:56;19.50;31.30
5639;DHT22;2841;44.526;11.360;2023-04-06T14:27:23;19.60;31.40
5639;DHT22;2841;44.526;11.360;2023-04-06T14:29:50;19.80;31.30
5639;DHT22;2841;44.526;11.360;2023-04-06T14:32:19;19.70;31.20
5639;DHT22;2841;44.526;11.360;2023-04-06T14:34:47;19.60;31.00
5639;DHT22;2841;44.526;11.360;2023-04-06T14:37:14;19.40;31.00
5639;DHT22;2841;44.526;11.360;2023-04-06T14:39:41;19.30;30.90
5639;DHT22;2841;44.526;11.360;2023-04-06T14:42:08;19.20;30.90
5639;DHT22;2841;44.526;11.360;2023-04-06T14:44:34;19.20;30.90
5639;DHT22;2841;44.526;11.360;2023-04-06T14:47:01;19.20;30.90
5639;DHT22;2841;44.526;11.360;2023-04-06T14:49:30;19.30;30.80
5639;DHT22;2841;44.526;11.360;2023-04-06T14:51:58;19.20;30.50
5639;DHT22;2841;44.526;11.360;2023-04-06T14:54:25;19.20;30.50
5639;DHT22;2841;44.526;11.360;2023-04-06T14:56:52;19.40;30.50
5639;DHT22;2841;44.526;11.360;2023-04-06T14:59:18;19.50;30.00
5639;DHT22;2841;44.526;11.360;2023-04-06T15:01:45;19.70;30.00
5639;DHT22;2841;44.526;11.360;2023-04-06T15:04:12;19.80;30.00
5639;DHT22;2841;44.526;11.360;2023-04-06T15:06:39;19.80;29.90
5639;DHT22;2841;44.526;11.360;2023-04-06T15:09:07;19.90;29.80
5639;DHT22;2841;44.526;11.360;2023-04-06T15:11:34;20.00;29.80
5639;DHT22;2841;44.526;11.360;2023-04-06T15:14:01;20.40;29.70
5639;DHT22;2841;44.526;11.360;2023-04-06T15:16:27;20.60;29.50
5639;DHT22;2841;44.526;11.360;2023-04-06T15:18:57;20.90;29.40
5639;DHT22;2841;44.526;11.360;2023-04-06T15:21:24;21.50;29.40
5639;DHT22;2841;44.526;11.360;2023-04-06T15:23:52;23.50;28.80
5639;DHT22;2841;44.526;11.360;2023-04-06T15:26:20;25.50;27.80
5639;DHT22;2841;44.526;11.360;2023-04-06T15:28:47;27.60;26.70
5639;DHT22;2841;44.526;11.360;2023-04-06T15:31:14;29.80;25.70
5639;DHT22;2841;44.526;11.360;2023-04-06T15:33:41;31.10;25.10
5639;DHT22;2841;44.526;11.360;2023-04-06T15:36:08;32.30;24.80
5639;DHT22;2841;44.526;11.360;2023-04-06T15:38:41;33.80;24.50
5639;DHT22;2841;44.526;11.360;2023-04-06T15:41:08;33.80;24.20
5639;DHT22;2841;44.526;11.360;2023-04-06T15:43:37;34.50;24.40
5639;DHT22;2841;44.526;11.360;2023-04-06T15:46:05;35.50;23.90
5639;DHT22;2841;44.526;11.360;2023-04-06T15:48:31;36.40;24.30
5639;DHT22;2841;44.526;11.360;2023-04-06T15:50:59;37.30;23.40
5639;DHT22;2841;44.526;11.360;2023-04-06T15:53:25;38.40;23.20
5639;DHT22;2841;44.526;11.360;2023-04-06T15:55:56;38.80;22.80